Saint-Denis, Réunion

07:43 RET le 07 février 2016 (GMT +0400)
La Bretagne | | Change Station
CLOSE
Current Station
Stations météorologiques personnelles
Location: Sainte-Clotilde, SAINT DENIS
Altitude: 791 ft
Stations météo à proximité

Alt. 791 ft 20.92 °S, 55.50 °E | Updated 3 minutes ago

Mostly Cloudy
Nuageux
78.1 ° F
Paraît 81 ° F
N
8.0
Vent Variable Vent de SSE
Gusts 8.0 mph

Aujourd'hui
Haut(e) -- | Bas -- ° F
--% Risque de précip.
Hier
Haut(e) -- | Bas -- ° F
Precip. -- pouce
Pression 29.83 pouce
Visibilité 4.3 Miles terrestres
Nuages Peu 2300 ft
Peu 2600 ft
Nuages épars 3300 ft
Nuageux 5300 ft
indice de chaleur 81 ° F
Point de rosée 77 ° F
Humidité 95%
Précipitations 0.87 pouce
Profondeur de la couche neigeuse Non disponible.
6:03 AM 6:59 PM
Lune descendante, 3% visible
METAR FMEE 070330Z 10015KT 7000 FEW023TCU FEW026CB SCT033 BKN053 27/25 Q1010 RESHRA TEMPO 4500 SHRA
Pression 29.83 pouce
Visibilité 4.3 Miles terrestres
Nuages Peu 2300 ft
Peu 2600 ft
Nuages épars 3300 ft
Nuageux 5300 ft
indice de chaleur 81 ° F
Point de rosée 77 ° F
Humidité 95%
Précipitations 0.87 pouce
Profondeur de la couche neigeuse Non disponible.
6:03 AM 6:59 PM
Lune descendante, 3% visible
METAR FMEE 070330Z 10015KT 7000 FEW023TCU FEW026CB SCT033 BKN053 27/25 Q1010 RESHRA TEMPO 4500 SHRA

10-Day Weather Forecast

No radar image for this location.
×

Almanac

Astronomie

Feb. 07, 2016 Lever Coucher
Temps réel
Crépuscule civil
Crépuscule nautique
Crépuscule astronomique
Lune
Durée de lumière visible
Longueur du jour
Tomorrow will be .
, % of the Moon is Illuminated

Extrêmes aujourd'hui

Country Highs Country Lows

Community

WunderPhotos

Upload Photos

1,891,154 Photos téléchargées !

WunderBlog® & News

Nearby

Qualité de l'air

  Qualité de l'air Indice de la qualité de l'air Polluant
Not available.

Épaisseur de neige

Station Depth Altitude

Activité sismique

Ville Distance Mag. Time & Date
Minimum magnitude displayed is 2.5.

Températures des eaux côtières

Lieu Température

Stations

Stations météo à proximité

Emplacement de la station Température Refroidissement éolien Point de rosée Humidité Vent Precip. Alt. Mise à jour Type